createdAt,value
2018-01-24T00:00:24.192Z,18.27
2018-01-24T00:02:51.224Z,19.40
2018-01-24T00:05:17.513Z,18.30
2018-01-24T00:07:43.817Z,19.50
2018-01-24T00:10:10.113Z,20.40
2018-01-24T00:12:36.420Z,18.30
2018-01-24T00:15:02.719Z,19.20
2018-01-24T00:17:29.005Z,20.20
2018-01-24T00:19:56.060Z,18.80
2018-01-24T00:22:22.330Z,19.97
2018-01-24T00:24:48.634Z,19.47
2018-01-24T00:27:15.644Z,19.60
2018-01-24T00:29:41.963Z,19.50
2018-01-24T00:32:08.275Z,19.70
2018-01-24T00:34:34.586Z,18.97
2018-01-24T00:37:00.899Z,18.40
2018-01-24T00:39:27.955Z,19.23
2018-01-24T00:41:54.983Z,20.00
2018-01-24T00:44:22.031Z,20.13
2018-01-24T00:46:49.052Z,19.70
2018-01-24T00:49:15.353Z,20.67
2018-01-24T00:51:41.667Z,19.93
2018-01-24T00:54:07.980Z,21.80
2018-01-24T00:56:34.294Z,20.90
2018-01-24T00:59:01.347Z,20.50
2018-01-24T01:01:28.397Z,21.00
2018-01-24T01:03:55.424Z,21.07
2018-01-24T01:06:21.723Z,19.67
2018-01-24T01:08:48.035Z,20.17
2018-01-24T01:11:14.336Z,20.80
2018-01-24T01:13:41.364Z,20.70
2018-01-24T01:16:08.445Z,19.77
2018-01-24T01:18:34.740Z,19.90
2018-01-24T01:21:01.029Z,20.53
2018-01-24T01:23:27.328Z,21.43
2018-01-24T01:25:54.373Z,19.93
2018-01-24T01:28:21.417Z,21.23
2018-01-24T01:30:48.461Z,21.10
2018-01-24T01:33:15.481Z,21.10
2018-01-24T01:35:41.775Z,22.00
2018-01-24T01:38:08.062Z,20.93
2018-01-24T01:40:35.084Z,20.97
2018-01-24T01:43:01.406Z,20.40
2018-01-24T01:45:27.689Z,20.00
2018-01-24T01:47:53.979Z,20.63
2018-01-24T01:50:20.307Z,20.40
2018-01-24T01:52:46.620Z,20.10
2018-01-24T01:55:12.899Z,18.80
2018-01-24T01:57:39.191Z,19.53
2018-01-24T02:00:05.505Z,18.80
2018-01-24T02:02:31.820Z,18.97
2018-01-24T02:04:58.115Z,19.10
2018-01-24T02:07:25.173Z,19.30
2018-01-24T02:09:51.971Z,18.80
2018-01-24T02:12:18.304Z,18.20
2018-01-24T02:14:44.610Z,19.83
2018-01-24T02:17:10.991Z,19.27
2018-01-24T02:19:38.048Z,19.00
2018-01-24T02:22:05.079Z,21.27
2018-01-24T02:24:32.131Z,19.90
2018-01-24T02:26:59.162Z,20.30
2018-01-24T02:29:25.445Z,22.20
2018-01-24T02:31:51.748Z,22.17
2018-01-24T02:34:18.046Z,23.33
2018-01-24T02:36:45.074Z,23.07
2018-01-24T02:39:19.285Z,24.43
2018-01-24T02:41:45.573Z,23.90
2018-01-24T02:44:11.874Z,23.70
2018-01-24T02:46:38.936Z,24.87
2018-01-24T02:49:05.399Z,24.53
2018-01-24T02:51:31.673Z,24.77
2018-01-24T02:53:57.979Z,25.83
2018-01-24T02:56:24.262Z,26.10
2018-01-24T02:58:50.596Z,26.03
2018-01-24T03:01:16.888Z,24.90
2018-01-24T03:03:43.173Z,25.43
2018-01-24T03:06:09.475Z,25.40
2018-01-24T03:08:35.789Z,25.73
2018-01-24T03:11:02.082Z,26.60
2018-01-24T03:13:28.343Z,27.80
2018-01-24T03:15:54.629Z,25.50
2018-01-24T03:18:20.928Z,25.20
2018-01-24T03:20:47.978Z,26.47
2018-01-24T03:23:15.022Z,24.90
2018-01-24T03:25:42.083Z,24.73
2018-01-24T03:28:08.365Z,24.87
2018-01-24T03:30:34.681Z,24.97
2018-01-24T03:33:00.958Z,24.80
2018-01-24T03:35:27.244Z,25.23
2018-01-24T03:37:53.517Z,25.47
2018-01-24T03:40:20.560Z,23.60
2018-01-24T03:42:47.606Z,25.10
2018-01-24T03:45:13.907Z,23.53
2018-01-24T03:47:40.260Z,25.00
2018-01-24T03:50:07.285Z,25.20
2018-01-24T03:52:33.590Z,23.97
2018-01-24T03:54:59.876Z,23.50
2018-01-24T03:57:26.901Z,24.60
2018-01-24T03:59:53.193Z,24.03
2018-01-24T04:02:19.500Z,24.40
2018-01-24T04:04:45.774Z,22.70
2018-01-24T04:07:12.102Z,25.00
2018-01-24T04:09:38.372Z,23.80
2018-01-24T04:12:04.717Z,24.10
2018-01-24T04:14:30.987Z,25.10
2018-01-24T04:16:57.409Z,24.70
2018-01-24T04:19:23.675Z,25.20
2018-01-24T04:21:49.969Z,27.30
2018-01-24T04:24:16.257Z,25.57
2018-01-24T04:26:43.274Z,27.07
2018-01-24T04:29:09.555Z,26.00
2018-01-24T04:31:35.848Z,24.77
2018-01-24T04:34:02.909Z,26.10
2018-01-24T04:36:29.936Z,26.90
2018-01-24T04:38:56.968Z,25.60
2018-01-24T04:41:23.252Z,25.57
2018-01-24T04:43:49.566Z,23.83
2018-01-24T04:46:15.849Z,26.60
2018-01-24T04:48:42.148Z,26.70
2018-01-24T04:51:08.474Z,24.73
2018-01-24T04:53:34.776Z,24.47
2018-01-24T04:56:01.812Z,24.80
2018-01-24T04:58:28.872Z,25.40
2018-01-24T05:00:55.180Z,23.83
2018-01-24T05:03:22.237Z,24.87
2018-01-24T05:05:48.533Z,25.23
2018-01-24T05:08:14.854Z,24.00
2018-01-24T05:10:41.172Z,24.00
2018-01-24T05:13:07.506Z,24.47
2018-01-24T05:15:33.821Z,25.07
2018-01-24T05:18:00.119Z,25.07
2018-01-24T05:20:29.271Z,23.80
2018-01-24T05:22:55.586Z,24.80
2018-01-24T05:25:21.883Z,24.87
2018-01-24T05:27:48.176Z,24.37
2018-01-24T05:30:14.500Z,26.87
2018-01-24T05:32:40.793Z,26.43
2018-01-24T05:35:07.091Z,25.47
2018-01-24T05:37:34.110Z,25.30
2018-01-24T05:40:00.398Z,23.90
2018-01-24T05:42:26.682Z,23.03
2018-01-24T05:44:52.988Z,22.60
2018-01-24T05:47:19.294Z,23.43
2018-01-24T05:49:45.597Z,23.77
2018-01-24T05:52:12.620Z,25.10
2018-01-24T05:54:38.922Z,22.80
2018-01-24T05:57:05.226Z,22.90
2018-01-24T05:59:31.496Z,23.20
2018-01-24T06:01:57.783Z,23.80
2018-01-24T06:04:24.049Z,23.70
2018-01-24T06:06:50.363Z,23.70
2018-01-24T06:09:16.655Z,23.87
2018-01-24T06:11:42.973Z,24.13
2018-01-24T06:14:09.990Z,24.17
2018-01-24T06:16:36.581Z,23.83
2018-01-24T06:19:02.847Z,23.17
2018-01-24T06:21:29.140Z,23.83
2018-01-24T06:23:55.425Z,23.70
2018-01-24T06:26:21.702Z,25.80
2018-01-24T06:28:47.978Z,24.57
2018-01-24T06:31:14.284Z,23.30
2018-01-24T06:33:40.561Z,23.93
2018-01-24T06:36:07.610Z,24.00
2018-01-24T06:38:34.659Z,24.67
2018-01-24T06:41:00.960Z,25.17
2018-01-24T06:43:27.255Z,25.43
2018-01-24T06:45:53.545Z,24.47
2018-01-24T06:48:20.584Z,25.10
2018-01-24T06:50:47.604Z,25.33
2018-01-24T06:53:13.906Z,24.70
2018-01-24T06:55:40.179Z,24.77
2018-01-24T06:58:06.496Z,23.30
2018-01-24T07:00:32.775Z,23.10
2018-01-24T07:02:59.072Z,23.00
2018-01-24T07:05:26.105Z,22.57
2018-01-24T07:07:52.410Z,22.80
2018-01-24T07:10:19.561Z,22.83
2018-01-24T07:13:13.079Z,21.90
2018-01-24T07:15:39.517Z,20.20
2018-01-24T07:18:05.862Z,20.93
2018-01-24T07:20:32.134Z,20.80
2018-01-24T07:22:58.433Z,20.77
2018-01-24T07:25:24.708Z,21.60
2018-01-24T07:27:51.006Z,20.93
2018-01-24T07:30:17.329Z,20.50
2018-01-24T07:32:43.607Z,21.63
2018-01-24T07:35:09.919Z,21.43
2018-01-24T07:37:36.195Z,23.60
2018-01-24T07:40:02.544Z,21.13
2018-01-24T07:42:28.863Z,21.50
2018-01-24T07:44:55.164Z,21.27
2018-01-24T07:47:22.187Z,23.27
2018-01-24T07:49:48.475Z,22.43
2018-01-24T07:52:14.750Z,22.13
2018-01-24T07:54:41.041Z,20.50
2018-01-24T07:57:07.381Z,21.30
2018-01-24T07:59:33.726Z,21.10
2018-01-24T08:02:00.025Z,21.90
2018-01-24T08:04:26.317Z,20.37
2018-01-24T08:06:53.395Z,21.27
2018-01-24T08:09:19.684Z,21.10
2018-01-24T08:11:46.731Z,20.10
2018-01-24T08:14:13.770Z,20.03
2018-01-24T08:16:40.816Z,21.33
2018-01-24T08:19:07.858Z,20.30
2018-01-24T08:21:34.144Z,21.80
2018-01-24T08:24:00.425Z,19.60
2018-01-24T08:26:26.715Z,20.50
2018-01-24T08:28:53.005Z,18.83
2018-01-24T08:31:20.029Z,21.57
2018-01-24T08:33:46.325Z,20.50
2018-01-24T08:36:12.601Z,20.90
2018-01-24T08:38:39.655Z,19.50
2018-01-24T08:41:06.806Z,20.87
2018-01-24T08:43:37.010Z,21.33
2018-01-24T08:46:00.152Z,20.20
2018-01-24T08:48:26.470Z,21.50
2018-01-24T08:50:52.771Z,21.00
2018-01-24T08:53:19.364Z,21.00
2018-01-24T08:55:46.431Z,21.87
2018-01-24T08:58:13.483Z,21.77
2018-01-24T09:00:59.165Z,23.23
2018-01-24T09:03:50.354Z,21.50
2018-01-24T09:06:41.384Z,20.90
2018-01-24T09:09:32.259Z,23.27
2018-01-24T09:12:23.568Z,23.00
2018-01-24T09:15:15.220Z,23.30
2018-01-24T09:18:06.436Z,23.20
2018-01-24T09:20:58.303Z,23.97
2018-01-24T09:24:10.271Z,22.90
2018-01-24T09:26:39.784Z,23.03
2018-01-24T09:29:06.082Z,22.40
2018-01-24T09:31:32.385Z,23.87
2018-01-24T09:33:58.682Z,23.20
2018-01-24T09:36:25.010Z,21.50
2018-01-24T09:38:51.304Z,22.57
2018-01-24T09:41:17.602Z,21.60
2018-01-24T09:43:43.898Z,20.90
2018-01-24T09:46:10.193Z,22.37
2018-01-24T09:48:36.474Z,19.97
2018-01-24T09:51:02.807Z,20.80
2018-01-24T09:53:29.095Z,21.40
2018-01-24T09:55:56.141Z,20.87
2018-01-24T09:58:23.173Z,21.27
2018-01-24T10:00:49.474Z,20.43
2018-01-24T10:03:15.768Z,19.70
2018-01-24T10:05:42.059Z,19.13
2018-01-24T10:08:08.378Z,17.70
2018-01-24T10:10:34.692Z,19.30
2018-01-24T10:13:00.989Z,18.20
2018-01-24T10:15:27.272Z,17.63
2018-01-24T10:17:53.585Z,17.33
2018-01-24T10:20:19.873Z,16.40
2018-01-24T10:22:46.905Z,17.27
2018-01-24T10:25:13.949Z,16.07
2018-01-24T10:27:40.977Z,16.70
2018-01-24T10:30:07.286Z,16.67
2018-01-24T10:32:33.606Z,17.00
2018-01-24T10:34:59.886Z,14.80
2018-01-24T10:37:26.919Z,14.50
2018-01-24T10:39:53.217Z,12.70
2018-01-24T10:42:19.650Z,14.90
2018-01-24T10:44:45.919Z,13.30
2018-01-24T10:47:12.203Z,13.07
2018-01-24T10:49:38.497Z,12.63
2018-01-24T10:52:05.534Z,13.67
2018-01-24T10:54:31.825Z,12.60
2018-01-24T10:56:58.198Z,13.63
2018-01-24T10:59:25.233Z,11.57
2018-01-24T11:01:52.267Z,11.77
2018-01-24T11:04:18.568Z,10.57
2018-01-24T11:06:52.021Z,11.00
2018-01-24T11:09:19.028Z,9.43
2018-01-24T11:11:45.341Z,9.57
2018-01-24T11:14:11.686Z,10.00
2018-01-24T11:16:37.979Z,9.73
2018-01-24T11:19:04.274Z,10.10
2018-01-24T11:21:31.313Z,9.97
2018-01-24T11:23:57.592Z,8.43
2018-01-24T11:26:23.897Z,7.87
2018-01-24T11:28:50.192Z,8.47
2018-01-24T11:31:23.697Z,7.77
2018-01-24T11:33:50.788Z,7.93
2018-01-24T11:36:17.058Z,7.60
2018-01-24T11:38:43.370Z,7.60
2018-01-24T11:41:09.697Z,7.50
2018-01-24T11:43:36.020Z,7.87
2018-01-24T11:46:02.304Z,7.70
2018-01-24T11:48:29.342Z,7.20
2018-01-24T11:50:56.379Z,6.70
2018-01-24T11:53:22.685Z,6.47
2018-01-24T11:55:49.006Z,6.70
2018-01-24T11:58:15.287Z,7.00
2018-01-24T12:00:42.364Z,6.10
2018-01-24T12:03:08.668Z,5.93
2018-01-24T12:05:35.677Z,6.27
2018-01-24T12:08:01.981Z,6.10
2018-01-24T12:10:28.254Z,6.00
2018-01-24T12:12:54.561Z,5.73
2018-01-24T12:15:20.854Z,6.33
2018-01-24T12:17:47.173Z,6.03
2018-01-24T12:20:13.475Z,5.37
2018-01-24T12:22:40.519Z,5.93
2018-01-24T12:25:06.827Z,6.00
2018-01-24T12:27:33.133Z,5.43
2018-01-24T12:29:59.419Z,5.40
2018-01-24T12:32:25.732Z,5.30
2018-01-24T12:34:51.999Z,5.40
2018-01-24T12:37:19.011Z,5.00
2018-01-24T12:39:45.306Z,4.67
2018-01-24T12:42:11.604Z,4.60
2018-01-24T12:44:37.949Z,3.97
2018-01-24T12:47:04.226Z,3.77
2018-01-24T12:49:30.519Z,3.30
2018-01-24T12:51:56.810Z,3.70
2018-01-24T12:54:23.108Z,4.00
2018-01-24T12:56:50.167Z,3.80
2018-01-24T12:59:16.460Z,3.73
2018-01-24T13:01:42.749Z,3.20
2018-01-24T13:04:09.080Z,3.10
2018-01-24T13:06:36.100Z,3.00
2018-01-24T13:09:02.506Z,3.33
2018-01-24T13:11:28.779Z,3.33
2018-01-24T13:13:55.837Z,2.73
2018-01-24T13:16:22.126Z,3.10
2018-01-24T13:18:48.444Z,2.83
2018-01-24T13:21:14.722Z,2.90
2018-01-24T13:23:41.771Z,3.03
2018-01-24T13:26:08.080Z,2.67
2018-01-24T13:28:35.141Z,3.00
2018-01-24T13:31:02.173Z,2.60
2018-01-24T13:33:29.252Z,2.83
2018-01-24T13:35:55.562Z,2.40
2018-01-24T13:38:22.605Z,2.87
2018-01-24T13:40:49.637Z,3.03
2018-01-24T13:43:15.942Z,2.83
2018-01-24T13:45:42.220Z,2.50
2018-01-24T13:48:09.268Z,2.73
2018-01-24T13:50:36.300Z,2.93
2018-01-24T13:53:03.349Z,2.73
2018-01-24T13:55:30.373Z,2.60
2018-01-24T13:57:56.680Z,2.30
2018-01-24T14:00:23.000Z,2.23
2018-01-24T14:02:49.290Z,2.80
2018-01-24T14:05:16.349Z,2.37
2018-01-24T14:07:43.368Z,3.00
2018-01-24T14:10:09.682Z,2.37
2018-01-24T14:12:35.964Z,2.50
2018-01-24T14:15:03.012Z,2.50
2018-01-24T14:17:30.041Z,2.70
2018-01-24T14:19:57.090Z,2.33
2018-01-24T14:22:24.116Z,2.43
2018-01-24T14:24:50.443Z,2.47
2018-01-24T14:27:16.708Z,2.40
2018-01-24T14:29:43.007Z,2.40
2018-01-24T14:32:09.290Z,2.43
2018-01-24T14:34:35.589Z,2.73
2018-01-24T14:37:01.885Z,2.60
2018-01-24T14:39:28.198Z,2.67
2018-01-24T14:41:54.512Z,2.40
2018-01-24T14:44:20.808Z,2.33
2018-01-24T14:46:47.832Z,2.70
2018-01-24T14:49:14.103Z,2.73
2018-01-24T14:51:40.396Z,2.73
2018-01-24T14:54:07.465Z,2.33
2018-01-24T14:56:34.504Z,2.67
2018-01-24T14:59:01.517Z,2.20
2018-01-24T15:01:27.828Z,2.67
2018-01-24T15:03:54.127Z,2.40
2018-01-24T15:06:21.179Z,2.23
2018-01-24T15:08:48.209Z,2.43
2018-01-24T15:11:15.274Z,2.17
2018-01-24T15:13:41.552Z,2.10
2018-01-24T15:16:08.074Z,2.23
2018-01-24T15:18:34.415Z,2.00
2018-01-24T15:21:00.696Z,2.00
2018-01-24T15:23:26.982Z,2.30
2018-01-24T15:25:53.289Z,1.93
2018-01-24T15:28:19.573Z,2.43
2018-01-24T15:30:46.620Z,1.87
2018-01-24T15:33:13.645Z,2.00
2018-01-24T15:35:39.960Z,2.23
2018-01-24T15:38:06.243Z,2.27
2018-01-24T15:40:32.602Z,2.33
2018-01-24T15:42:58.903Z,2.03
2018-01-24T15:45:25.244Z,2.80
2018-01-24T15:47:51.558Z,2.00
2018-01-24T15:50:17.849Z,2.60
2018-01-24T15:52:44.140Z,2.20
2018-01-24T15:55:10.416Z,2.03
2018-01-24T15:57:36.883Z,2.03
2018-01-24T16:00:03.181Z,2.37
2018-01-24T16:02:30.242Z,2.30
2018-01-24T16:04:57.277Z,2.03
2018-01-24T16:07:24.324Z,2.60
2018-01-24T16:09:51.396Z,2.17
2018-01-24T16:12:17.697Z,2.33
2018-01-24T16:14:43.995Z,1.97
2018-01-24T16:17:10.293Z,1.90
2018-01-24T16:19:36.587Z,2.23
2018-01-24T16:22:02.874Z,1.90
2018-01-24T16:24:29.193Z,2.10
2018-01-24T16:26:55.497Z,2.20
2018-01-24T16:29:21.794Z,1.90
2018-01-24T16:31:48.085Z,1.80
2018-01-24T16:34:14.409Z,1.90
2018-01-24T16:36:40.695Z,2.27
2018-01-24T16:39:07.001Z,2.23
2018-01-24T16:41:33.272Z,2.00
2018-01-24T16:44:00.306Z,1.90
2018-01-24T16:46:27.334Z,1.97
2018-01-24T16:48:54.380Z,1.77
2018-01-24T16:51:21.103Z,2.17
2018-01-24T16:53:47.468Z,1.83
2018-01-24T16:56:13.751Z,1.90
2018-01-24T16:58:40.250Z,1.97
2018-01-24T17:01:07.268Z,2.20
2018-01-24T17:03:34.347Z,2.50
2018-01-24T17:06:00.645Z,2.20
2018-01-24T17:08:26.944Z,2.23
2018-01-24T17:10:53.471Z,2.23
2018-01-24T17:13:20.599Z,1.97
2018-01-24T17:15:46.897Z,1.70
2018-01-24T17:18:13.174Z,1.70
2018-01-24T17:20:39.477Z,1.80
2018-01-24T17:23:05.769Z,1.80
2018-01-24T17:25:32.369Z,1.97
2018-01-24T17:27:58.652Z,1.57
2018-01-24T17:30:25.693Z,1.60
2018-01-24T17:32:51.989Z,1.87
2018-01-24T17:35:18.290Z,1.70
2018-01-24T17:37:44.569Z,1.50
2018-01-24T17:40:10.880Z,1.87
2018-01-24T17:42:37.921Z,2.00
2018-01-24T17:45:04.205Z,2.13
2018-01-24T17:47:30.673Z,2.00
2018-01-24T17:49:56.952Z,2.00
2018-01-24T17:52:23.262Z,2.03
2018-01-24T17:54:49.553Z,2.00
2018-01-24T17:57:15.848Z,2.00
2018-01-24T17:59:43.195Z,1.73
2018-01-24T18:02:09.849Z,2.00
2018-01-24T18:04:36.203Z,2.00
2018-01-24T18:07:02.683Z,1.83
2018-01-24T18:09:29.028Z,1.80
2018-01-24T18:11:55.308Z,2.03
2018-01-24T18:14:21.660Z,2.13
2018-01-24T18:16:47.986Z,1.90
2018-01-24T18:19:14.423Z,1.90
2018-01-24T18:21:40.731Z,1.70
2018-01-24T18:24:07.079Z,2.20
2018-01-24T18:26:33.485Z,1.97
2018-01-24T18:28:59.827Z,1.70
2018-01-24T18:31:26.182Z,2.40
2018-01-24T18:33:52.577Z,2.30
2018-01-24T18:36:18.877Z,2.00
2018-01-24T18:38:45.975Z,1.90
2018-01-24T18:41:12.276Z,2.20
2018-01-24T18:43:38.601Z,1.83
2018-01-24T18:46:04.962Z,1.70
2018-01-24T18:48:31.344Z,2.00
2018-01-24T18:50:57.687Z,1.80
2018-01-24T18:53:24.746Z,1.90
2018-01-24T18:55:51.054Z,2.13
2018-01-24T18:58:18.129Z,2.70
2018-01-24T19:00:44.471Z,2.50
2018-01-24T19:03:10.764Z,2.27
2018-01-24T19:05:37.797Z,2.07
2018-01-24T19:08:04.826Z,1.80
2018-01-24T19:10:31.191Z,2.20
2018-01-24T19:12:57.483Z,1.90
2018-01-24T19:15:23.835Z,1.73
2018-01-24T19:17:50.204Z,2.10
2018-01-24T19:20:16.547Z,2.20
2018-01-24T19:22:42.833Z,1.90
2018-01-24T19:25:09.868Z,1.90
2018-01-24T19:27:36.179Z,1.90
2018-01-24T19:30:02.587Z,1.80
2018-01-24T19:32:29.044Z,1.83
2018-01-24T19:34:55.320Z,1.83
2018-01-24T19:37:21.915Z,1.80
2018-01-24T19:39:48.423Z,1.70
2018-01-24T19:42:14.753Z,1.77
2018-01-24T19:44:41.083Z,1.70
2018-01-24T19:47:07.383Z,1.90
2018-01-24T19:49:33.685Z,2.40
2018-01-24T19:52:01.686Z,1.90
2018-01-24T19:54:27.976Z,2.30
2018-01-24T19:56:54.287Z,1.70
2018-01-24T19:59:20.581Z,1.63
2018-01-24T20:01:46.912Z,1.90
2018-01-24T20:04:20.163Z,1.90
2018-01-24T20:06:47.226Z,1.80
2018-01-24T20:09:13.729Z,2.97
2018-01-24T20:11:40.053Z,2.27
2018-01-24T20:14:06.405Z,2.07
2018-01-24T20:16:32.688Z,2.37
2018-01-24T20:18:59.034Z,2.03
2018-01-24T20:21:25.384Z,2.03
2018-01-24T20:23:51.720Z,1.90
2018-01-24T20:26:18.014Z,2.20
2018-01-24T20:28:44.394Z,1.83
2018-01-24T20:31:11.449Z,1.97
2018-01-24T20:33:38.523Z,2.07
2018-01-24T20:36:04.893Z,2.03
2018-01-24T20:38:31.328Z,1.93
2018-01-24T20:40:57.644Z,2.10
2018-01-24T20:43:24.200Z,2.60
2018-01-24T20:45:51.351Z,2.70
2018-01-24T20:48:17.703Z,2.07
2018-01-24T20:50:44.738Z,2.60
2018-01-24T20:53:11.047Z,2.27
2018-01-24T20:55:37.371Z,2.30
2018-01-24T20:58:03.716Z,1.90
2018-01-24T21:00:30.055Z,2.07
2018-01-24T21:02:56.398Z,2.40
2018-01-24T21:05:23.530Z,2.37
2018-01-24T21:07:49.882Z,1.87
2018-01-24T21:10:16.967Z,1.87
2018-01-24T21:12:43.267Z,2.13
2018-01-24T21:15:10.334Z,1.90
2018-01-24T21:17:36.693Z,2.07
2018-01-24T21:20:03.136Z,2.23
2018-01-24T21:22:30.294Z,2.33
2018-01-24T21:24:57.469Z,2.30
2018-01-24T21:27:24.517Z,2.20
2018-01-24T21:30:03.465Z,2.17
2018-01-24T21:32:42.162Z,2.20
2018-01-24T21:35:15.811Z,2.10
2018-01-24T21:37:42.476Z,1.83
2018-01-24T21:40:08.844Z,2.27
2018-01-24T21:42:35.906Z,2.10
2018-01-24T21:45:02.262Z,2.00
2018-01-24T21:47:28.586Z,2.10
2018-01-24T21:49:54.937Z,2.23
2018-01-24T21:52:21.279Z,2.20
2018-01-24T21:54:47.577Z,2.30
2018-01-24T21:57:13.861Z,1.97
2018-01-24T21:59:40.199Z,2.10
2018-01-24T22:02:07.224Z,1.80
2018-01-24T22:04:33.501Z,2.20
2018-01-24T22:06:59.772Z,2.10
2018-01-24T22:09:26.080Z,2.00
2018-01-24T22:11:53.181Z,1.87
2018-01-24T22:14:19.489Z,2.00
2018-01-24T22:16:45.810Z,2.23
2018-01-24T22:19:12.975Z,2.13
2018-01-24T22:21:39.287Z,1.77
2018-01-24T22:24:05.608Z,2.20
2018-01-24T22:26:32.283Z,2.03
2018-01-24T22:28:58.561Z,1.80
2018-01-24T22:31:24.874Z,2.03
2018-01-24T22:33:51.153Z,2.10
2018-01-24T22:36:17.505Z,2.40
2018-01-24T22:38:43.785Z,1.93
2018-01-24T22:41:10.087Z,2.03
2018-01-24T22:43:37.159Z,2.10
2018-01-24T22:46:03.474Z,2.07
2018-01-24T22:48:29.801Z,1.90
2018-01-24T22:50:56.100Z,2.00
2018-01-24T22:53:23.180Z,1.93
2018-01-24T22:55:50.219Z,1.73
2018-01-24T22:58:17.238Z,1.60
2018-01-24T23:00:43.550Z,1.80
2018-01-24T23:03:09.872Z,1.77
2018-01-24T23:05:36.172Z,1.60
2018-01-24T23:08:02.465Z,2.00
2018-01-24T23:10:29.533Z,1.60
2018-01-24T23:12:55.827Z,2.00
2018-01-24T23:15:22.132Z,1.70
2018-01-24T23:17:48.416Z,1.73
2018-01-24T23:20:15.447Z,1.70
2018-01-24T23:22:42.480Z,1.57
2018-01-24T23:25:08.810Z,1.70
2018-01-24T23:27:35.125Z,1.90
2018-01-24T23:30:01.415Z,1.50
2018-01-24T23:32:27.740Z,2.00
2018-01-24T23:34:54.028Z,1.80
2018-01-24T23:37:21.081Z,2.10
2018-01-24T23:39:47.378Z,1.63
2018-01-24T23:42:13.668Z,1.93
2018-01-24T23:44:39.960Z,1.97
2018-01-24T23:47:06.286Z,1.70
2018-01-24T23:49:32.551Z,1.80
2018-01-24T23:51:59.601Z,1.70
2018-01-24T23:54:25.933Z,1.80
2018-01-24T23:56:52.251Z,2.00
2018-01-24T23:59:18.524Z,2.07
